Terminal Aerodrome Forecast
Issued by NWS Sioux Falls, SD

Home | Current Version | Previous Version | Text Only | Print | Product List | Glossary On
Versions: 1 2 3 4 5 6 7 8 9 10 11 12
000
FTUS43 KFSD 181100
TAFHON
TAF
KHON 181132Z 1812/1912 13015G22KT P6SM BKN100
     FM181500 15020G28KT P6SM SCT150
     FM181800 16024G33KT P6SM FEW200
     FM190100 16019G26KT P6SM SCT200
     FM190700 18017G25KT P6SM BKN120=

USA.gov is the U.S. government's official web portal to all federal, state and local government web resources and services.